createdAt,value
2022-09-09T00:02:22.444Z,99302.19
2022-09-09T00:05:47.165Z,99286.38
2022-09-09T00:08:48.533Z,99297.25
2022-09-09T00:11:31.759Z,99296.53
2022-09-09T00:14:07.247Z,99302.66
2022-09-09T00:16:43.486Z,99297.50
2022-09-09T00:19:34.673Z,99293.22
2022-09-09T00:22:24.968Z,99306.19
2022-09-09T00:24:57.569Z,99304.19
2022-09-09T00:27:50.921Z,99299.41
2022-09-09T00:30:26.823Z,99301.03
2022-09-09T00:33:02.763Z,99302.91
2022-09-09T00:35:38.489Z,99293.16
2022-09-09T00:38:35.322Z,99299.41
2022-09-09T00:41:18.903Z,99299.03
2022-09-09T00:44:36.329Z,99284.25
2022-09-09T00:47:46.416Z,99288.13
2022-09-09T00:50:56.777Z,99288.09
2022-09-09T00:54:30.215Z,99282.97
2022-09-09T00:57:32.895Z,99289.13
2022-09-09T01:00:25.753Z,99301.19
2022-09-09T01:03:52.797Z,99301.00
2022-09-09T01:06:39.821Z,99312.47
2022-09-09T01:09:34.263Z,99315.28
2022-09-09T01:12:44.979Z,99330.75
2022-09-09T01:15:24.156Z,99319.22
2022-09-09T01:18:15.571Z,99330.06
2022-09-09T01:21:07.694Z,99326.63
2022-09-09T01:23:50.330Z,99327.56
2022-09-09T01:26:45.090Z,99336.03
2022-09-09T01:29:20.365Z,99338.31
2022-09-09T01:32:41.398Z,99342.81
2022-09-09T01:35:41.031Z,99343.75
2022-09-09T01:38:09.046Z,99343.97
2022-09-09T01:40:40.766Z,99349.78
2022-09-09T01:43:09.360Z,99348.28
2022-09-09T01:45:41.141Z,99349.50
2022-09-09T01:48:10.669Z,99347.84
2022-09-09T01:50:40.125Z,99348.69
2022-09-09T01:53:09.925Z,99329.34
2022-09-09T01:55:53.196Z,99322.00
2022-09-09T01:59:00.589Z,99326.66
2022-09-09T02:02:07.773Z,99324.69
2022-09-09T02:04:51.509Z,99327.41
2022-09-09T02:07:49.526Z,99336.41
2022-09-09T02:11:06.911Z,99347.00
2022-09-09T02:13:38.919Z,99335.03
2022-09-09T02:16:36.331Z,99334.72
2022-09-09T02:19:26.504Z,99340.19
2022-09-09T02:22:00.864Z,99344.78
2022-09-09T02:24:37.419Z,99350.47
2022-09-09T02:27:10.359Z,99354.59
2022-09-09T02:29:44.175Z,99344.94
2022-09-09T02:32:24.636Z,99349.06
2022-09-09T02:35:06.919Z,99346.47
2022-09-09T02:37:41.080Z,99342.28
2022-09-09T02:40:12.794Z,99344.13
2022-09-09T02:42:46.451Z,99341.69
2022-09-09T02:45:29.595Z,99339.66
2022-09-09T02:48:17.951Z,99340.69
2022-09-09T02:51:10.091Z,99339.69
2022-09-09T02:54:37.334Z,99346.13
2022-09-09T02:57:15.594Z,99346.69
2022-09-09T02:59:46.685Z,99346.56
2022-09-09T03:02:14.906Z,99346.00
2022-09-09T03:04:45.630Z,99352.28
2022-09-09T03:07:15.041Z,99350.84
2022-09-09T03:09:46.805Z,99352.28
2022-09-09T03:12:14.770Z,99353.72
2022-09-09T03:14:42.419Z,99350.69
2022-09-09T03:17:11.787Z,99345.84
2022-09-09T03:19:41.263Z,99337.72
2022-09-09T03:22:12.519Z,99348.00
2022-09-09T03:24:40.206Z,99355.44
2022-09-09T03:27:08.172Z,99343.16
2022-09-09T03:29:35.814Z,99350.56
2022-09-09T03:32:07.131Z,99346.81
2022-09-09T03:34:36.573Z,99346.38
2022-09-09T03:37:06.787Z,99344.38
2022-09-09T03:39:36.247Z,99344.44
2022-09-09T03:42:06.804Z,99340.88
2022-09-09T03:44:36.259Z,99339.97
2022-09-09T03:47:03.991Z,99333.41
2022-09-09T03:49:31.642Z,99331.03
2022-09-09T03:52:00.147Z,99328.44
2022-09-09T03:54:28.395Z,99333.56
2022-09-09T03:56:56.085Z,99323.72
2022-09-09T03:59:24.186Z,99330.69
2022-09-09T04:01:52.447Z,99331.16
2022-09-09T04:04:21.184Z,99336.84
2022-09-09T04:06:52.371Z,99345.16
2022-09-09T04:09:20.030Z,99345.13
2022-09-09T04:11:47.614Z,99354.44
2022-09-09T04:14:15.240Z,99341.16
2022-09-09T04:16:45.736Z,99342.28
2022-09-09T04:19:15.402Z,99350.59
2022-09-09T04:21:43.750Z,99352.13
2022-09-09T04:24:11.396Z,99353.56
2022-09-09T04:26:39.456Z,99355.41
2022-09-09T04:29:08.778Z,99368.56
2022-09-09T04:31:36.741Z,99365.13
2022-09-09T04:34:06.433Z,99361.69
2022-09-09T04:36:34.461Z,99358.25
2022-09-09T04:39:02.659Z,99358.81
2022-09-09T04:41:32.525Z,99368.94
2022-09-09T04:44:01.868Z,99362.09
2022-09-09T04:46:31.292Z,99375.91
2022-09-09T04:49:01.003Z,99367.84
2022-09-09T04:51:32.349Z,99370.84
2022-09-09T04:54:00.244Z,99366.41
2022-09-09T04:56:29.637Z,99377.69
2022-09-09T04:58:59.092Z,99365.13
2022-09-09T05:01:28.245Z,99363.28
2022-09-09T05:03:56.032Z,99367.44
2022-09-09T05:06:24.287Z,99359.44
2022-09-09T05:08:55.438Z,99361.44
2022-09-09T05:11:31.043Z,99360.28
2022-09-09T05:13:58.743Z,99372.69
2022-09-09T05:16:26.454Z,99379.09
2022-09-09T05:18:54.591Z,99380.13
2022-09-09T05:21:27.486Z,99377.41
2022-09-09T05:23:55.112Z,99379.13
2022-09-09T05:26:25.166Z,99368.69
2022-09-09T05:28:53.197Z,99372.25
2022-09-09T05:31:21.418Z,99374.69
2022-09-09T05:33:53.095Z,99377.69
2022-09-09T05:36:23.710Z,99379.38
2022-09-09T05:38:52.186Z,99383.09
2022-09-09T05:41:21.047Z,99384.53
2022-09-09T05:43:49.934Z,99376.41
2022-09-09T05:46:25.091Z,99381.66
2022-09-09T05:48:54.605Z,99384.25
2022-09-09T05:51:27.671Z,99378.94
2022-09-09T05:54:01.482Z,99387.63
2022-09-09T05:56:31.280Z,99394.94
2022-09-09T05:59:01.264Z,99392.22
2022-09-09T06:01:37.489Z,99388.31
2022-09-09T06:04:07.291Z,99389.72
2022-09-09T06:06:40.592Z,99395.16
2022-09-09T06:09:11.496Z,99396.88
2022-09-09T06:11:42.262Z,99406.19
2022-09-09T06:14:11.542Z,99410.31
2022-09-09T06:16:40.193Z,99406.00
2022-09-09T06:19:09.711Z,99409.34
2022-09-09T06:21:39.836Z,99408.88
2022-09-09T06:24:08.835Z,99421.59
2022-09-09T06:26:44.247Z,99422.66
2022-09-09T06:29:14.011Z,99410.41
2022-09-09T06:31:43.470Z,99406.63
2022-09-09T06:34:12.899Z,99410.84
2022-09-09T06:36:42.350Z,99418.38
2022-09-09T06:39:14.722Z,99403.53
2022-09-09T06:41:44.785Z,99397.19
2022-09-09T06:44:14.189Z,99396.88
2022-09-09T06:46:42.774Z,99396.97
2022-09-09T06:49:12.276Z,99402.78
2022-09-09T06:51:44.828Z,99411.47
2022-09-09T06:54:14.882Z,99411.59
2022-09-09T06:56:46.258Z,99412.97
2022-09-09T06:59:15.698Z,99417.28
2022-09-09T07:01:45.988Z,99428.53
2022-09-09T07:04:15.124Z,99424.81
2022-09-09T07:06:47.417Z,99421.31
2022-09-09T07:09:17.738Z,99421.22
2022-09-09T07:11:53.903Z,99423.13
2022-09-09T07:14:23.795Z,99434.06
2022-09-09T07:16:59.354Z,99431.47
2022-09-09T07:19:28.324Z,99432.50
2022-09-09T07:21:56.659Z,99428.44
2022-09-09T07:24:25.406Z,99431.06
2022-09-09T07:26:53.887Z,99435.91
2022-09-09T07:29:22.251Z,99443.09
2022-09-09T07:31:50.678Z,99442.63
2022-09-09T07:34:20.160Z,99440.78
2022-09-09T07:36:49.985Z,99445.88
2022-09-09T07:39:19.470Z,99440.03
2022-09-09T07:41:50.636Z,99436.59
2022-09-09T07:44:26.211Z,99436.50
2022-09-09T07:46:57.646Z,99441.78
2022-09-09T07:49:32.124Z,99436.31
2022-09-09T07:52:02.938Z,99440.25
2022-09-09T07:54:33.899Z,99444.31
2022-09-09T07:57:04.940Z,99454.78
2022-09-09T07:59:34.749Z,99458.19
2022-09-09T08:02:04.293Z,99452.81
2022-09-09T08:04:33.700Z,99452.69
2022-09-09T08:07:04.558Z,99443.91
2022-09-09T08:09:34.791Z,99446.38
2022-09-09T08:12:04.799Z,99442.91
2022-09-09T08:14:34.310Z,99447.06
2022-09-09T08:17:04.050Z,99444.97
2022-09-09T08:19:37.164Z,99445.53
2022-09-09T08:22:05.567Z,99446.19
2022-09-09T08:24:35.290Z,99442.44
2022-09-09T08:27:04.963Z,99443.56
2022-09-09T08:29:34.890Z,99437.78
2022-09-09T08:32:04.588Z,99442.09
2022-09-09T08:34:34.918Z,99442.69
2022-09-09T08:37:04.541Z,99443.31
2022-09-09T08:39:35.115Z,99438.13
2022-09-09T08:42:22.809Z,99437.53
2022-09-09T08:45:40.391Z,99437.56
2022-09-09T08:49:24.931Z,99437.59
2022-09-09T08:51:58.376Z,99453.31
2022-09-09T08:54:51.120Z,99455.44
2022-09-09T08:57:28.014Z,99450.06
2022-09-09T08:59:58.776Z,99453.19
2022-09-09T09:03:16.496Z,99448.53
2022-09-09T09:06:16.526Z,99456.44
2022-09-09T09:09:22.738Z,99449.88
2022-09-09T09:12:02.481Z,99445.94
2022-09-09T09:14:36.475Z,99455.06
2022-09-09T09:17:14.310Z,99434.88
2022-09-09T09:19:45.230Z,99443.69
2022-09-09T09:22:53.106Z,99442.97
2022-09-09T09:25:32.090Z,99443.47
2022-09-09T09:28:26.885Z,99432.09
2022-09-09T09:31:06.244Z,99435.03
2022-09-09T09:33:54.319Z,99448.59
2022-09-09T09:36:43.549Z,99441.00
2022-09-09T09:42:23.945Z,99431.69
2022-09-09T09:44:55.257Z,99434.97
2022-09-09T09:47:25.248Z,99433.38
2022-09-09T09:50:00.622Z,99433.78
2022-09-09T09:52:33.367Z,99435.25
2022-09-09T09:55:08.535Z,99436.84
2022-09-09T09:57:39.294Z,99444.00
2022-09-09T10:00:21.943Z,99434.03
2022-09-09T10:02:53.804Z,99439.84
2022-09-09T10:05:30.596Z,99438.47
2022-09-09T10:08:14.507Z,99426.38
2022-09-09T10:11:08.211Z,99424.69
2022-09-09T10:14:13.686Z,99419.75
2022-09-09T10:17:15.872Z,99423.09
2022-09-09T10:20:27.621Z,99430.66
2022-09-09T10:23:45.310Z,99432.31
2022-09-09T10:26:49.182Z,99432.34
2022-09-09T10:30:05.597Z,99434.31
2022-09-09T10:36:24.457Z,99446.78
2022-09-09T10:39:40.612Z,99433.66
2022-09-09T10:42:17.862Z,99428.25
2022-09-09T10:45:22.934Z,99425.41
2022-09-09T10:48:27.987Z,99425.19
2022-09-09T10:51:34.987Z,99424.19
2022-09-09T10:54:54.879Z,99420.72
2022-09-09T10:57:53.285Z,99417.03
2022-09-09T11:00:47.524Z,99412.31
2022-09-09T11:03:27.752Z,99417.78
2022-09-09T11:06:20.764Z,99416.09
2022-09-09T11:08:53.784Z,99417.44
2022-09-09T11:11:59.475Z,99418.25
2022-09-09T11:14:53.004Z,99430.56
2022-09-09T11:17:48.094Z,99423.81
2022-09-09T11:20:17.576Z,99424.13
2022-09-09T11:23:06.183Z,99421.69
2022-09-09T11:25:45.354Z,99420.75
2022-09-09T11:29:15.879Z,99420.47
2022-09-09T11:32:18.865Z,99417.63
2022-09-09T11:35:16.133Z,99419.81
2022-09-09T11:38:12.413Z,99422.09
2022-09-09T11:40:42.505Z,99419.22
2022-09-09T11:43:25.652Z,99424.22
2022-09-09T11:46:03.860Z,99424.25
2022-09-09T11:48:40.757Z,99420.53
2022-09-09T11:51:28.003Z,99420.50
2022-09-09T11:54:30.565Z,99406.59
2022-09-09T11:57:01.175Z,99407.13
2022-09-09T11:59:33.785Z,99410.19
2022-09-09T12:02:25.856Z,99404.19
2022-09-09T12:05:11.134Z,99407.13
2022-09-09T12:07:48.500Z,99400.03
2022-09-09T12:10:37.478Z,99399.78
2022-09-09T12:13:24.377Z,99400.53
2022-09-09T12:16:00.241Z,99391.31
2022-09-09T12:18:41.017Z,99397.22
2022-09-09T12:21:41.775Z,99401.53
2022-09-09T12:24:29.664Z,99393.84
2022-09-09T12:27:20.805Z,99393.19
2022-09-09T12:30:22.730Z,99391.66
2022-09-09T12:33:14.357Z,99399.09
2022-09-09T12:35:52.655Z,99392.97
2022-09-09T12:38:37.779Z,99394.94
2022-09-09T12:41:07.275Z,99382.97
2022-09-09T12:43:37.521Z,99386.84
2022-09-09T12:46:24.044Z,99385.03
2022-09-09T12:48:52.462Z,99382.47
2022-09-09T12:51:33.877Z,99377.97
2022-09-09T12:54:04.443Z,99377.41
2022-09-09T12:56:35.252Z,99364.16
2022-09-09T12:59:04.713Z,99374.78
2022-09-09T13:01:36.976Z,99366.81
2022-09-09T13:04:26.016Z,99354.41
2022-09-09T13:06:54.660Z,99352.69
2022-09-09T13:09:24.248Z,99352.53
2022-09-09T13:12:01.591Z,99347.94
2022-09-09T13:14:38.456Z,99347.31
2022-09-09T13:17:23.054Z,99343.13
2022-09-09T13:19:54.278Z,99337.28
2022-09-09T13:22:42.359Z,99337.19
2022-09-09T13:25:12.571Z,99339.09
2022-09-09T13:28:03.551Z,99334.56
2022-09-09T13:30:39.112Z,99329.63
2022-09-09T13:33:15.613Z,99333.44
2022-09-09T13:36:08.094Z,99329.19
2022-09-09T13:38:56.604Z,99323.00
2022-09-09T13:41:37.886Z,99317.28
2022-09-09T13:44:07.705Z,99323.72
2022-09-09T13:46:41.630Z,99312.84
2022-09-09T13:49:13.652Z,99316.28
2022-09-09T13:51:51.788Z,99318.00
2022-09-09T13:54:23.976Z,99316.75
2022-09-09T13:56:54.694Z,99309.53
2022-09-09T13:59:30.646Z,99308.88
2022-09-09T14:02:08.541Z,99312.66
2022-09-09T14:04:38.006Z,99311.00
2022-09-09T14:07:07.371Z,99316.59
2022-09-09T14:09:37.323Z,99310.19
2022-09-09T14:12:10.257Z,99311.31
2022-09-09T14:14:40.352Z,99303.16
2022-09-09T14:17:10.864Z,99298.50
2022-09-09T14:19:40.294Z,99298.94
2022-09-09T14:22:09.673Z,99297.41
2022-09-09T14:24:41.573Z,99288.09
2022-09-09T14:27:11.361Z,99290.47
2022-09-09T14:29:40.700Z,99289.56
2022-09-09T14:32:12.574Z,99293.69
2022-09-09T14:34:42.294Z,99284.16
2022-09-09T14:37:12.051Z,99282.44
2022-09-09T14:39:41.511Z,99285.56
2022-09-09T14:42:12.250Z,99286.59
2022-09-09T14:44:41.900Z,99284.75
2022-09-09T14:47:11.321Z,99291.47
2022-09-09T14:49:42.660Z,99291.47
2022-09-09T14:52:14.577Z,99293.28
2022-09-09T14:54:44.032Z,99296.75
2022-09-09T14:57:13.530Z,99287.28
2022-09-09T14:59:42.965Z,99287.66
2022-09-09T15:02:15.285Z,99279.81
2022-09-09T15:04:45.390Z,99283.84
2022-09-09T15:07:14.812Z,99286.66
2022-09-09T15:09:44.411Z,99285.03
2022-09-09T15:12:14.234Z,99290.66
2022-09-09T15:14:43.806Z,99291.16
2022-09-09T15:17:14.305Z,99289.16
2022-09-09T15:19:43.184Z,99288.06
2022-09-09T15:22:12.542Z,99291.44
2022-09-09T15:24:41.946Z,99287.03
2022-09-09T15:27:11.370Z,99294.88
2022-09-09T15:29:40.751Z,99298.03
2022-09-09T15:32:10.096Z,99294.63
2022-09-09T15:34:39.698Z,99297.81
2022-09-09T15:37:14.206Z,99291.88
2022-09-09T15:39:43.767Z,99291.66
2022-09-09T15:42:13.239Z,99291.69
2022-09-09T15:44:43.730Z,99287.94
2022-09-09T15:47:14.449Z,99292.66
2022-09-09T15:49:45.362Z,99291.97
2022-09-09T15:52:14.781Z,99289.19
2022-09-09T15:54:44.635Z,99285.69
2022-09-09T15:57:15.410Z,99276.69
2022-09-09T15:59:46.415Z,99272.25
2022-09-09T16:02:16.194Z,99282.56
2022-09-09T16:04:45.879Z,99290.25
2022-09-09T16:07:15.295Z,99288.22
2022-09-09T16:09:44.774Z,99294.00
2022-09-09T16:12:15.615Z,99287.50
2022-09-09T16:14:46.563Z,99286.63
2022-09-09T16:17:16.359Z,99293.91
2022-09-09T16:19:46.960Z,99288.03
2022-09-09T16:22:16.794Z,99294.56
2022-09-09T16:24:47.910Z,99293.41
2022-09-09T16:27:17.285Z,99294.00
2022-09-09T16:29:46.742Z,99293.78
2022-09-09T16:32:16.152Z,99290.69
2022-09-09T16:34:46.925Z,99290.28
2022-09-09T16:37:16.294Z,99291.56
2022-09-09T16:39:45.806Z,99293.66
2022-09-09T16:42:14.186Z,99290.13
2022-09-09T16:44:45.012Z,99294.75
2022-09-09T16:47:14.454Z,99289.28
2022-09-09T16:49:43.882Z,99295.53
2022-09-09T16:52:12.211Z,99291.81
2022-09-09T16:54:41.663Z,99292.28
2022-09-09T16:57:11.318Z,99299.06
2022-09-09T16:59:40.753Z,99293.97
2022-09-09T17:02:12.525Z,99294.56
2022-09-09T17:04:41.922Z,99287.72
2022-09-09T17:07:11.557Z,99291.72
2022-09-09T17:09:41.074Z,99299.28
2022-09-09T17:12:11.551Z,99298.34
2022-09-09T17:14:40.955Z,99295.56
2022-09-09T17:17:30.636Z,99290.28
2022-09-09T17:20:00.205Z,99300.56
2022-09-09T17:22:30.065Z,99296.16
2022-09-09T17:24:59.476Z,99299.31
2022-09-09T17:27:28.899Z,99299.03
2022-09-09T17:29:59.473Z,99306.94
2022-09-09T17:32:29.911Z,99310.84
2022-09-09T17:34:59.485Z,99303.16
2022-09-09T17:37:29.444Z,99307.78
2022-09-09T17:39:59.245Z,99310.31
2022-09-09T17:42:29.230Z,99314.47
2022-09-09T17:44:58.686Z,99313.09
2022-09-09T17:47:27.070Z,99315.81
2022-09-09T17:49:56.571Z,99317.34
2022-09-09T17:52:25.289Z,99317.88
2022-09-09T17:54:57.641Z,99309.69
2022-09-09T17:57:26.939Z,99311.00
2022-09-09T17:59:56.322Z,99315.72
2022-09-09T18:05:10.207Z,99314.09
2022-09-09T18:07:39.640Z,99322.78
2022-09-09T18:10:09.605Z,99327.38
2022-09-09T18:12:39.023Z,99329.78
2022-09-09T18:15:09.033Z,99341.03
2022-09-09T18:20:26.713Z,99329.78
2022-09-09T18:22:55.101Z,99327.47
2022-09-09T18:25:23.546Z,99327.66
2022-09-09T18:27:53.639Z,99331.00
2022-09-09T18:30:22.591Z,99337.84
2022-09-09T18:32:53.097Z,99334.44
2022-09-09T18:35:21.533Z,99330.03
2022-09-09T18:37:50.734Z,99323.56
2022-09-09T18:40:20.257Z,99336.72
2022-09-09T18:42:49.266Z,99340.50
2022-09-09T18:45:18.728Z,99346.84
2022-09-09T18:47:49.220Z,99353.13
2022-09-09T18:50:19.142Z,99356.69
2022-09-09T18:52:49.492Z,99339.81
2022-09-09T18:55:18.257Z,99337.69
2022-09-09T18:57:48.081Z,99333.28
2022-09-09T19:00:17.443Z,99338.94
2022-09-09T19:02:53.067Z,99338.84
2022-09-09T19:05:24.289Z,99336.25
2022-09-09T19:07:53.048Z,99338.84
2022-09-09T19:10:21.684Z,99345.34
2022-09-09T19:12:50.365Z,99333.47
2022-09-09T19:15:18.990Z,99329.25
2022-09-09T19:17:47.571Z,99331.66
2022-09-09T19:20:16.616Z,99327.69
2022-09-09T19:22:45.354Z,99332.09
2022-09-09T19:25:14.042Z,99331.25
2022-09-09T19:27:43.347Z,99330.81
2022-09-09T19:30:13.678Z,99328.06
2022-09-09T19:32:53.179Z,99330.78
2022-09-09T19:35:23.188Z,99328.41
2022-09-09T19:37:51.727Z,99331.78
2022-09-09T19:40:22.446Z,99334.13
2022-09-09T19:42:53.639Z,99330.13
2022-09-09T19:45:22.172Z,99330.31
2022-09-09T19:47:51.479Z,99326.41
2022-09-09T19:50:20.023Z,99325.69
2022-09-09T19:52:48.575Z,99335.41
2022-09-09T19:55:20.227Z,99339.00
2022-09-09T19:57:49.574Z,99336.44
2022-09-09T20:00:19.284Z,99337.31
2022-09-09T20:03:15.298Z,99333.88
2022-09-09T20:05:39.453Z,99335.56
2022-09-09T20:08:08.023Z,99337.31
2022-09-09T20:10:36.960Z,99330.47
2022-09-09T20:13:05.676Z,99332.84
2022-09-09T20:15:34.367Z,99317.50
2022-09-09T20:18:04.740Z,99325.34
2022-09-09T20:20:33.626Z,99326.28
2022-09-09T20:23:02.962Z,99327.81
2022-09-09T20:25:31.484Z,99332.53
2022-09-09T20:28:00.858Z,99325.84
2022-09-09T20:30:29.405Z,99329.28
2022-09-09T20:32:57.913Z,99327.03
2022-09-09T20:35:26.432Z,99334.94
2022-09-09T20:37:55.147Z,99333.53
2022-09-09T20:40:24.728Z,99345.28
2022-09-09T20:42:53.228Z,99342.16
2022-09-09T20:45:23.095Z,99340.69
2022-09-09T20:47:51.726Z,99338.06
2022-09-09T20:50:20.553Z,99339.97
2022-09-09T20:52:49.185Z,99329.19
2022-09-09T20:55:18.941Z,99331.31
2022-09-09T20:57:48.066Z,99327.53
2022-09-09T21:00:16.785Z,99328.59
2022-09-09T21:02:46.109Z,99323.09
2022-09-09T21:05:14.830Z,99311.41
2022-09-09T21:07:44.209Z,99308.84
2022-09-09T21:10:12.826Z,99310.53
2022-09-09T21:12:41.363Z,99311.91
2022-09-09T21:15:11.451Z,99313.44
2022-09-09T21:17:40.399Z,99312.63
2022-09-09T21:20:09.859Z,99304.09
2022-09-09T21:22:38.438Z,99303.25
2022-09-09T21:25:08.079Z,99294.22
2022-09-09T21:27:36.614Z,99286.69
2022-09-09T21:30:05.612Z,99292.81
2022-09-09T21:32:34.149Z,99277.13
2022-09-09T21:35:02.719Z,99289.03
2022-09-09T21:37:32.051Z,99285.91
2022-09-09T21:40:00.671Z,99279.75
2022-09-09T21:42:29.637Z,99287.00
2022-09-09T21:44:58.179Z,99289.03
2022-09-09T21:47:26.732Z,99276.91
2022-09-09T21:49:55.250Z,99279.88
2022-09-09T21:52:24.468Z,99275.41
2022-09-09T21:54:52.972Z,99277.84
2022-09-09T21:57:24.897Z,99286.00
2022-09-09T21:59:53.642Z,99284.97
2022-09-09T22:02:22.379Z,99282.91
2022-09-09T22:04:52.241Z,99287.13
2022-09-09T22:07:21.065Z,99288.03
2022-09-09T22:09:49.567Z,99290.38
2022-09-09T22:12:18.067Z,99293.09
2022-09-09T22:14:46.496Z,99289.31
2022-09-09T22:17:15.845Z,99295.84
2022-09-09T22:19:44.241Z,99285.28
2022-09-09T22:22:13.044Z,99281.69
2022-09-09T22:24:41.685Z,99294.44
2022-09-09T22:27:11.593Z,99287.66
2022-09-09T22:29:41.012Z,99282.91
2022-09-09T22:32:10.668Z,99283.06
2022-09-09T22:34:39.990Z,99279.66
2022-09-09T22:37:08.638Z,99282.81
2022-09-09T22:39:37.175Z,99283.81
2022-09-09T22:42:07.658Z,99285.41
2022-09-09T22:44:36.175Z,99278.28
2022-09-09T22:47:04.982Z,99281.97
2022-09-09T22:49:33.395Z,99279.09
2022-09-09T22:52:02.446Z,99276.16
2022-09-09T22:54:30.950Z,99271.91
2022-09-09T22:56:59.466Z,99267.66
2022-09-09T22:59:28.279Z,99267.13
2022-09-09T23:01:59.042Z,99260.00
2022-09-09T23:04:27.682Z,99266.09
2022-09-09T23:06:56.052Z,99259.44
2022-09-09T23:09:24.408Z,99262.34
2022-09-09T23:11:54.006Z,99262.66
2022-09-09T23:14:22.458Z,99256.25
2022-09-09T23:16:52.716Z,99266.78
2022-09-09T23:19:22.005Z,99259.00
2022-09-09T23:21:50.956Z,99259.66
2022-09-09T23:24:19.373Z,99263.03
2022-09-09T23:26:47.967Z,99251.75
2022-09-09T23:29:16.986Z,99249.09
2022-09-09T23:31:46.710Z,99257.22
2022-09-09T23:34:15.260Z,99252.34
2022-09-09T23:36:43.811Z,99254.84
2022-09-09T23:39:13.447Z,99257.44
2022-09-09T23:41:42.070Z,99256.16
2022-09-09T23:44:12.874Z,99248.81
2022-09-09T23:46:41.497Z,99257.22
2022-09-09T23:49:10.494Z,99250.91
2022-09-09T23:51:39.231Z,99250.22
2022-09-09T23:54:09.952Z,99258.28
2022-09-09T23:56:42.573Z,99256.16
2022-09-09T23:59:11.275Z,99262.03
